Terminal Aerodrome Forecast
Issued by NWS Sioux Falls, SD

Home | Current Version | Previous Version | Graphics & Text | Print | Product List | Glossary On
Versions: 1 2 3 4 5 6 7 8 9 10 11 12 13 14 15 16 17 18 19 20 21 22 23 24 25 26 27 28 29 30 31 32 33
612
FTUS43 KFSD 291720
TAFSUX
TAF
KSUX 291720Z 2918/3018 06016G24KT 6SM -RA OVC015
      TEMPO 2919/2923 3SM -RA BKN009
     FM300700 03013KT 4SM -RA OVC008
     FM300900 01013KT P6SM VCSH OVC008
     FM301600 02013KT P6SM OVC010=

USA.gov is the U.S. government's official web portal to all federal, state and local government web resources and services.